sensor_id;sensor_type;location;lat;lon;timestamp;temperature;humidity
22908;DHT22;11620;50.050;8.690;2022-11-10T00:02:36;11.40;99.90
22908;DHT22;11620;50.050;8.690;2022-11-10T00:05:23;11.60;99.90
22908;DHT22;11620;50.050;8.690;2022-11-10T00:08:10;11.70;99.90
22908;DHT22;11620;50.050;8.690;2022-11-10T00:10:57;11.70;99.90
22908;DHT22;11620;50.050;8.690;2022-11-10T00:13:47;11.70;99.90
22908;DHT22;11620;50.050;8.690;2022-11-10T00:16:52;11.80;99.90
22908;DHT22;11620;50.050;8.690;2022-11-10T00:19:49;11.90;99.90
22908;DHT22;11620;50.050;8.690;2022-11-10T00:22:37;11.90;99.90
22908;DHT22;11620;50.050;8.690;2022-11-10T00:25:25;11.90;99.90
22908;DHT22;11620;50.050;8.690;2022-11-10T00:28:11;11.70;99.90
22908;DHT22;11620;50.050;8.690;2022-11-10T00:30:58;11.80;99.90
22908;DHT22;11620;50.050;8.690;2022-11-10T00:33:49;11.70;99.90
22908;DHT22;11620;50.050;8.690;2022-11-10T00:36:36;11.80;99.90
22908;DHT22;11620;50.050;8.690;2022-11-10T00:39:22;11.70;99.90
22908;DHT22;11620;50.050;8.690;2022-11-10T00:42:09;11.70;99.90
22908;DHT22;11620;50.050;8.690;2022-11-10T00:44:55;11.70;99.90
22908;DHT22;11620;50.050;8.690;2022-11-10T00:47:41;11.70;99.90
22908;DHT22;11620;50.050;8.690;2022-11-10T00:50:30;11.80;99.90
22908;DHT22;11620;50.050;8.690;2022-11-10T00:53:16;11.80;99.90
22908;DHT22;11620;50.050;8.690;2022-11-10T00:56:02;11.80;99.90
22908;DHT22;11620;50.050;8.690;2022-11-10T00:58:49;11.80;99.90
22908;DHT22;11620;50.050;8.690;2022-11-10T01:01:35;11.80;99.90
22908;DHT22;11620;50.050;8.690;2022-11-10T01:04:22;11.80;99.90
22908;DHT22;11620;50.050;8.690;2022-11-10T01:07:08;11.90;99.90
22908;DHT22;11620;50.050;8.690;2022-11-10T01:09:54;11.70;99.90
22908;DHT22;11620;50.050;8.690;2022-11-10T01:12:41;11.60;99.90
22908;DHT22;11620;50.050;8.690;2022-11-10T01:15:27;11.40;99.90
22908;DHT22;11620;50.050;8.690;2022-11-10T01:18:13;11.30;99.90
22908;DHT22;11620;50.050;8.690;2022-11-10T01:21:00;11.30;99.90
22908;DHT22;11620;50.050;8.690;2022-11-10T01:23:46;11.20;99.90
22908;DHT22;11620;50.050;8.690;2022-11-10T01:26:33;11.10;99.90
22908;DHT22;11620;50.050;8.690;2022-11-10T01:29:19;11.20;99.90
22908;DHT22;11620;50.050;8.690;2022-11-10T01:32:06;11.10;99.90
22908;DHT22;11620;50.050;8.690;2022-11-10T01:34:52;11.20;99.90
22908;DHT22;11620;50.050;8.690;2022-11-10T01:37:38;11.40;99.90
22908;DHT22;11620;50.050;8.690;2022-11-10T01:40:26;11.40;99.90
22908;DHT22;11620;50.050;8.690;2022-11-10T01:43:12;11.40;99.90
22908;DHT22;11620;50.050;8.690;2022-11-10T01:46:04;11.40;99.90
22908;DHT22;11620;50.050;8.690;2022-11-10T01:49:02;11.40;99.90
22908;DHT22;11620;50.050;8.690;2022-11-10T01:51:56;11.40;99.90
22908;DHT22;11620;50.050;8.690;2022-11-10T01:54:47;11.20;99.90
22908;DHT22;11620;50.050;8.690;2022-11-10T01:57:36;11.00;99.90
22908;DHT22;11620;50.050;8.690;2022-11-10T02:00:23;10.90;99.90
22908;DHT22;11620;50.050;8.690;2022-11-10T02:03:25;10.80;99.90
22908;DHT22;11620;50.050;8.690;2022-11-10T02:06:16;10.90;99.90
22908;DHT22;11620;50.050;8.690;2022-11-10T02:09:03;11.00;99.90
22908;DHT22;11620;50.050;8.690;2022-11-10T02:11:51;10.90;99.90
22908;DHT22;11620;50.050;8.690;2022-11-10T02:14:38;11.00;99.90
22908;DHT22;11620;50.050;8.690;2022-11-10T02:17:24;11.10;99.90
22908;DHT22;11620;50.050;8.690;2022-11-10T02:20:12;11.10;99.90
22908;DHT22;11620;50.050;8.690;2022-11-10T02:23:11;11.20;99.90
22908;DHT22;11620;50.050;8.690;2022-11-10T02:25:57;11.20;99.90
22908;DHT22;11620;50.050;8.690;2022-11-10T02:28:43;11.20;99.90
22908;DHT22;11620;50.050;8.690;2022-11-10T02:31:30;11.20;99.90
22908;DHT22;11620;50.050;8.690;2022-11-10T02:34:16;11.20;99.90
22908;DHT22;11620;50.050;8.690;2022-11-10T02:37:02;11.20;99.90
22908;DHT22;11620;50.050;8.690;2022-11-10T02:39:49;11.20;99.90
22908;DHT22;11620;50.050;8.690;2022-11-10T02:42:36;11.20;99.90
22908;DHT22;11620;50.050;8.690;2022-11-10T02:45:22;11.20;99.90
22908;DHT22;11620;50.050;8.690;2022-11-10T02:48:08;11.20;99.90
22908;DHT22;11620;50.050;8.690;2022-11-10T02:50:55;11.10;99.90
22908;DHT22;11620;50.050;8.690;2022-11-10T02:53:41;11.10;99.90
22908;DHT22;11620;50.050;8.690;2022-11-10T02:56:28;11.10;99.90
22908;DHT22;11620;50.050;8.690;2022-11-10T02:59:14;11.00;99.90
22908;DHT22;11620;50.050;8.690;2022-11-10T03:02:00;11.00;99.90
22908;DHT22;11620;50.050;8.690;2022-11-10T03:04:46;11.00;99.90
22908;DHT22;11620;50.050;8.690;2022-11-10T03:07:33;11.00;99.90
22908;DHT22;11620;50.050;8.690;2022-11-10T03:10:19;11.00;99.90
22908;DHT22;11620;50.050;8.690;2022-11-10T03:13:06;11.00;99.90
22908;DHT22;11620;50.050;8.690;2022-11-10T03:15:52;10.90;99.90
22908;DHT22;11620;50.050;8.690;2022-11-10T03:18:38;11.00;99.90
22908;DHT22;11620;50.050;8.690;2022-11-10T03:21:24;11.00;99.90
22908;DHT22;11620;50.050;8.690;2022-11-10T03:24:11;11.00;99.90
22908;DHT22;11620;50.050;8.690;2022-11-10T03:26:57;11.00;99.90
22908;DHT22;11620;50.050;8.690;2022-11-10T03:29:43;11.00;99.90
22908;DHT22;11620;50.050;8.690;2022-11-10T03:32:30;10.90;99.90
22908;DHT22;11620;50.050;8.690;2022-11-10T03:35:16;10.90;99.90
22908;DHT22;11620;50.050;8.690;2022-11-10T03:38:03;10.90;99.90
22908;DHT22;11620;50.050;8.690;2022-11-10T03:40:49;10.90;99.90
22908;DHT22;11620;50.050;8.690;2022-11-10T03:43:35;10.80;99.90
22908;DHT22;11620;50.050;8.690;2022-11-10T03:46:22;10.80;99.90
22908;DHT22;11620;50.050;8.690;2022-11-10T03:49:08;10.80;99.90
22908;DHT22;11620;50.050;8.690;2022-11-10T03:51:55;10.80;99.90
22908;DHT22;11620;50.050;8.690;2022-11-10T03:54:41;10.80;99.90
22908;DHT22;11620;50.050;8.690;2022-11-10T03:57:27;10.80;99.90
22908;DHT22;11620;50.050;8.690;2022-11-10T04:00:14;10.70;99.90
22908;DHT22;11620;50.050;8.690;2022-11-10T04:03:00;10.70;99.90
22908;DHT22;11620;50.050;8.690;2022-11-10T04:05:47;10.70;99.90
22908;DHT22;11620;50.050;8.690;2022-11-10T04:08:52;10.70;99.90
22908;DHT22;11620;50.050;8.690;2022-11-10T04:11:44;10.60;99.90
22908;DHT22;11620;50.050;8.690;2022-11-10T04:14:49;10.60;99.90
22908;DHT22;11620;50.050;8.690;2022-11-10T04:17:54;10.60;99.90
22908;DHT22;11620;50.050;8.690;2022-11-10T04:21:02;10.50;99.90
22908;DHT22;11620;50.050;8.690;2022-11-10T04:23:48;10.50;99.90
22908;DHT22;11620;50.050;8.690;2022-11-10T04:26:35;10.50;99.90
22908;DHT22;11620;50.050;8.690;2022-11-10T04:29:25;10.40;99.90
22908;DHT22;11620;50.050;8.690;2022-11-10T04:32:11;10.50;99.90
22908;DHT22;11620;50.050;8.690;2022-11-10T04:34:58;10.40;99.90
22908;DHT22;11620;50.050;8.690;2022-11-10T04:37:45;10.30;99.90
22908;DHT22;11620;50.050;8.690;2022-11-10T04:40:32;10.20;99.90
22908;DHT22;11620;50.050;8.690;2022-11-10T04:43:18;10.30;99.90
22908;DHT22;11620;50.050;8.690;2022-11-10T04:46:05;10.30;99.90
22908;DHT22;11620;50.050;8.690;2022-11-10T04:48:53;10.30;99.90
22908;DHT22;11620;50.050;8.690;2022-11-10T04:51:40;10.20;99.90
22908;DHT22;11620;50.050;8.690;2022-11-10T04:54:26;10.00;99.90
22908;DHT22;11620;50.050;8.690;2022-11-10T04:57:12;10.00;99.90
22908;DHT22;11620;50.050;8.690;2022-11-10T04:59:58;10.00;99.90
22908;DHT22;11620;50.050;8.690;2022-11-10T05:02:45;9.90;99.90
22908;DHT22;11620;50.050;8.690;2022-11-10T05:05:31;10.00;99.90
22908;DHT22;11620;50.050;8.690;2022-11-10T05:08:18;10.00;99.90
22908;DHT22;11620;50.050;8.690;2022-11-10T05:11:04;9.80;99.90
22908;DHT22;11620;50.050;8.690;2022-11-10T05:13:50;9.90;99.90
22908;DHT22;11620;50.050;8.690;2022-11-10T05:16:37;9.90;99.90
22908;DHT22;11620;50.050;8.690;2022-11-10T05:19:23;9.90;99.90
22908;DHT22;11620;50.050;8.690;2022-11-10T05:22:09;10.00;99.90
22908;DHT22;11620;50.050;8.690;2022-11-10T05:24:56;10.10;99.90
22908;DHT22;11620;50.050;8.690;2022-11-10T05:27:42;10.10;99.90
22908;DHT22;11620;50.050;8.690;2022-11-10T05:30:28;10.00;99.90
22908;DHT22;11620;50.050;8.690;2022-11-10T05:33:15;10.00;99.90
22908;DHT22;11620;50.050;8.690;2022-11-10T05:36:01;10.00;99.90
22908;DHT22;11620;50.050;8.690;2022-11-10T05:38:47;10.10;99.90
22908;DHT22;11620;50.050;8.690;2022-11-10T05:41:34;10.00;99.90
22908;DHT22;11620;50.050;8.690;2022-11-10T05:44:20;9.90;99.90
22908;DHT22;11620;50.050;8.690;2022-11-10T05:47:05;10.00;99.90
22908;DHT22;11620;50.050;8.690;2022-11-10T05:49:49;9.90;99.90
22908;DHT22;11620;50.050;8.690;2022-11-10T05:52:34;9.90;99.90
22908;DHT22;11620;50.050;8.690;2022-11-10T05:55:25;9.90;99.90
22908;DHT22;11620;50.050;8.690;2022-11-10T05:58:10;10.00;99.90
22908;DHT22;11620;50.050;8.690;2022-11-10T06:00:55;9.90;99.90
22908;DHT22;11620;50.050;8.690;2022-11-10T06:03:40;9.90;99.90
22908;DHT22;11620;50.050;8.690;2022-11-10T06:06:24;9.80;99.90
22908;DHT22;11620;50.050;8.690;2022-11-10T06:09:09;9.70;99.90
22908;DHT22;11620;50.050;8.690;2022-11-10T06:11:53;9.70;99.90
22908;DHT22;11620;50.050;8.690;2022-11-10T06:14:38;9.60;99.90
22908;DHT22;11620;50.050;8.690;2022-11-10T06:17:25;9.70;99.90
22908;DHT22;11620;50.050;8.690;2022-11-10T06:20:11;9.80;99.90
22908;DHT22;11620;50.050;8.690;2022-11-10T06:23:07;9.80;99.90
22908;DHT22;11620;50.050;8.690;2022-11-10T06:25:52;9.70;99.90
22908;DHT22;11620;50.050;8.690;2022-11-10T06:28:37;9.70;99.90
22908;DHT22;11620;50.050;8.690;2022-11-10T06:31:21;9.80;99.90
22908;DHT22;11620;50.050;8.690;2022-11-10T06:34:05;9.90;99.90
22908;DHT22;11620;50.050;8.690;2022-11-10T06:36:50;9.90;99.90
22908;DHT22;11620;50.050;8.690;2022-11-10T06:39:34;9.90;99.90
22908;DHT22;11620;50.050;8.690;2022-11-10T06:42:18;9.80;99.90
22908;DHT22;11620;50.050;8.690;2022-11-10T06:45:03;9.80;99.90
22908;DHT22;11620;50.050;8.690;2022-11-10T06:47:48;9.70;99.90
22908;DHT22;11620;50.050;8.690;2022-11-10T06:50:33;9.60;99.90
22908;DHT22;11620;50.050;8.690;2022-11-10T06:53:17;9.50;99.90
22908;DHT22;11620;50.050;8.690;2022-11-10T06:56:02;9.50;99.90
22908;DHT22;11620;50.050;8.690;2022-11-10T06:58:46;9.40;99.90
22908;DHT22;11620;50.050;8.690;2022-11-10T07:01:30;9.40;99.90
22908;DHT22;11620;50.050;8.690;2022-11-10T07:04:15;9.30;99.90
22908;DHT22;11620;50.050;8.690;2022-11-10T07:07:00;9.40;99.90
22908;DHT22;11620;50.050;8.690;2022-11-10T07:09:44;9.40;99.90
22908;DHT22;11620;50.050;8.690;2022-11-10T07:12:29;9.50;99.90
22908;DHT22;11620;50.050;8.690;2022-11-10T07:15:13;9.50;99.90
22908;DHT22;11620;50.050;8.690;2022-11-10T07:17:57;9.60;99.90
22908;DHT22;11620;50.050;8.690;2022-11-10T07:20:41;9.50;99.90
22908;DHT22;11620;50.050;8.690;2022-11-10T07:23:26;9.60;99.90
22908;DHT22;11620;50.050;8.690;2022-11-10T07:26:10;9.60;99.90
22908;DHT22;11620;50.050;8.690;2022-11-10T07:28:54;9.70;99.90
22908;DHT22;11620;50.050;8.690;2022-11-10T07:31:39;9.70;99.90
22908;DHT22;11620;50.050;8.690;2022-11-10T07:34:23;9.70;99.90
22908;DHT22;11620;50.050;8.690;2022-11-10T07:37:08;10.00;99.90
22908;DHT22;11620;50.050;8.690;2022-11-10T07:39:52;10.20;99.90
22908;DHT22;11620;50.050;8.690;2022-11-10T07:42:39;10.30;99.90
22908;DHT22;11620;50.050;8.690;2022-11-10T07:45:25;10.50;99.90
22908;DHT22;11620;50.050;8.690;2022-11-10T07:48:09;10.60;99.90
22908;DHT22;11620;50.050;8.690;2022-11-10T07:50:54;10.80;99.90
22908;DHT22;11620;50.050;8.690;2022-11-10T07:53:38;11.00;99.90
22908;DHT22;11620;50.050;8.690;2022-11-10T07:56:23;11.20;99.90
22908;DHT22;11620;50.050;8.690;2022-11-10T07:59:08;11.30;99.90
22908;DHT22;11620;50.050;8.690;2022-11-10T08:01:52;11.30;99.90
22908;DHT22;11620;50.050;8.690;2022-11-10T08:04:37;11.60;99.90
22908;DHT22;11620;50.050;8.690;2022-11-10T08:07:21;11.70;99.90
22908;DHT22;11620;50.050;8.690;2022-11-10T08:10:06;11.90;99.90
22908;DHT22;11620;50.050;8.690;2022-11-10T08:12:59;11.90;99.90
22908;DHT22;11620;50.050;8.690;2022-11-10T08:15:44;12.30;99.90
22908;DHT22;11620;50.050;8.690;2022-11-10T08:18:28;12.70;99.90
22908;DHT22;11620;50.050;8.690;2022-11-10T08:21:13;12.90;99.90
22908;DHT22;11620;50.050;8.690;2022-11-10T08:23:57;12.90;99.90
22908;DHT22;11620;50.050;8.690;2022-11-10T08:26:41;12.90;99.90
22908;DHT22;11620;50.050;8.690;2022-11-10T08:29:25;13.20;99.90
22908;DHT22;11620;50.050;8.690;2022-11-10T08:32:10;13.50;99.90
22908;DHT22;11620;50.050;8.690;2022-11-10T08:34:54;13.50;99.90
22908;DHT22;11620;50.050;8.690;2022-11-10T08:37:39;13.10;99.90
22908;DHT22;11620;50.050;8.690;2022-11-10T08:40:24;13.30;99.90
22908;DHT22;11620;50.050;8.690;2022-11-10T08:43:11;13.20;99.90
22908;DHT22;11620;50.050;8.690;2022-11-10T08:45:56;13.60;99.90
22908;DHT22;11620;50.050;8.690;2022-11-10T08:48:41;13.80;99.90
22908;DHT22;11620;50.050;8.690;2022-11-10T08:51:25;13.60;99.90
22908;DHT22;11620;50.050;8.690;2022-11-10T08:54:10;13.80;99.90
22908;DHT22;11620;50.050;8.690;2022-11-10T08:56:54;14.00;99.90
22908;DHT22;11620;50.050;8.690;2022-11-10T08:59:39;14.10;99.90
22908;DHT22;11620;50.050;8.690;2022-11-10T09:02:23;14.40;99.90
22908;DHT22;11620;50.050;8.690;2022-11-10T09:05:08;14.60;99.90
22908;DHT22;11620;50.050;8.690;2022-11-10T09:07:52;14.70;99.90
22908;DHT22;11620;50.050;8.690;2022-11-10T09:10:39;14.70;99.90
22908;DHT22;11620;50.050;8.690;2022-11-10T09:13:24;14.90;99.90
22908;DHT22;11620;50.050;8.690;2022-11-10T09:16:08;14.70;99.90
22908;DHT22;11620;50.050;8.690;2022-11-10T09:18:53;14.10;99.90
22908;DHT22;11620;50.050;8.690;2022-11-10T09:21:37;14.40;99.90
22908;DHT22;11620;50.050;8.690;2022-11-10T09:24:22;14.60;99.90
22908;DHT22;11620;50.050;8.690;2022-11-10T09:27:06;14.70;99.90
22908;DHT22;11620;50.050;8.690;2022-11-10T09:29:50;14.80;99.90
22908;DHT22;11620;50.050;8.690;2022-11-10T09:32:35;15.00;99.90
22908;DHT22;11620;50.050;8.690;2022-11-10T09:35:19;15.40;99.90
22908;DHT22;11620;50.050;8.690;2022-11-10T09:38:04;15.20;99.90
22908;DHT22;11620;50.050;8.690;2022-11-10T09:41:10;15.40;99.90
22908;DHT22;11620;50.050;8.690;2022-11-10T09:47:13;15.10;99.90
22908;DHT22;11620;50.050;8.690;2022-11-10T09:50:01;14.80;99.90
22908;DHT22;11620;50.050;8.690;2022-11-10T09:52:46;14.70;99.90
22908;DHT22;11620;50.050;8.690;2022-11-10T09:55:36;14.90;99.90
22908;DHT22;11620;50.050;8.690;2022-11-10T09:58:26;14.60;99.90
22908;DHT22;11620;50.050;8.690;2022-11-10T10:10:46;14.30;99.90
22908;DHT22;11620;50.050;8.690;2022-11-10T10:16:53;14.10;99.90
22908;DHT22;11620;50.050;8.690;2022-11-10T10:25:30;13.60;99.90
22908;DHT22;11620;50.050;8.690;2022-11-10T10:31:34;13.40;99.90
22908;DHT22;11620;50.050;8.690;2022-11-10T10:34:22;13.40;99.90
22908;DHT22;11620;50.050;8.690;2022-11-10T10:37:40;13.40;99.90
22908;DHT22;11620;50.050;8.690;2022-11-10T10:40:26;13.60;99.90
22908;DHT22;11620;50.050;8.690;2022-11-10T10:43:11;13.70;99.90
22908;DHT22;11620;50.050;8.690;2022-11-10T10:52:12;13.80;99.90
22908;DHT22;11620;50.050;8.690;2022-11-10T10:55:05;13.50;99.90
22908;DHT22;11620;50.050;8.690;2022-11-10T11:04:10;13.40;99.90
22908;DHT22;11620;50.050;8.690;2022-11-10T11:07:20;13.40;99.90
22908;DHT22;11620;50.050;8.690;2022-11-10T11:10:26;13.90;99.90
22908;DHT22;11620;50.050;8.690;2022-11-10T11:13:23;14.00;99.90
22908;DHT22;11620;50.050;8.690;2022-11-10T11:16:09;13.90;99.90
22908;DHT22;11620;50.050;8.690;2022-11-10T11:18:55;14.30;99.90
22908;DHT22;11620;50.050;8.690;2022-11-10T11:25:31;14.70;99.90
22908;DHT22;11620;50.050;8.690;2022-11-10T11:28:22;15.20;99.90
22908;DHT22;11620;50.050;8.690;2022-11-10T11:40:35;14.90;99.90
22908;DHT22;11620;50.050;8.690;2022-11-10T11:46:54;14.40;99.90
22908;DHT22;11620;50.050;8.690;2022-11-10T11:56:23;14.20;99.90
22908;DHT22;11620;50.050;8.690;2022-11-10T12:05:49;14.50;99.90
22908;DHT22;11620;50.050;8.690;2022-11-10T12:08:45;15.20;99.90
22908;DHT22;11620;50.050;8.690;2022-11-10T12:14:57;16.00;99.90
22908;DHT22;11620;50.050;8.690;2022-11-10T12:20:44;16.60;99.90
22908;DHT22;11620;50.050;8.690;2022-11-10T12:24:23;16.50;99.90
22908;DHT22;11620;50.050;8.690;2022-11-10T12:26:55;16.80;99.90
22908;DHT22;11620;50.050;8.690;2022-11-10T12:33:05;16.40;99.90
22908;DHT22;11620;50.050;8.690;2022-11-10T12:35:54;16.70;99.90
22908;DHT22;11620;50.050;8.690;2022-11-10T12:41:52;17.20;99.90
22908;DHT22;11620;50.050;8.690;2022-11-10T12:47:42;17.30;99.90
22908;DHT22;11620;50.050;8.690;2022-11-10T12:53:42;17.40;99.90
22908;DHT22;11620;50.050;8.690;2022-11-10T12:56:36;17.60;99.90
22908;DHT22;11620;50.050;8.690;2022-11-10T12:59:35;17.80;99.90
22908;DHT22;11620;50.050;8.690;2022-11-10T13:02:31;17.50;99.90
22908;DHT22;11620;50.050;8.690;2022-11-10T13:05:30;17.80;99.90
22908;DHT22;11620;50.050;8.690;2022-11-10T13:08:23;17.80;99.90
22908;DHT22;11620;50.050;8.690;2022-11-10T13:13:59;18.00;99.90
22908;DHT22;11620;50.050;8.690;2022-11-10T13:16:50;17.40;99.90
22908;DHT22;11620;50.050;8.690;2022-11-10T13:34:29;17.50;99.90
22908;DHT22;11620;50.050;8.690;2022-11-10T13:43:19;17.30;99.90
22908;DHT22;11620;50.050;8.690;2022-11-10T13:46:05;16.90;99.90
22908;DHT22;11620;50.050;8.690;2022-11-10T13:58:22;16.60;99.90
22908;DHT22;11620;50.050;8.690;2022-11-10T14:04:02;16.80;99.90
22908;DHT22;11620;50.050;8.690;2022-11-10T14:06:49;16.80;99.90
22908;DHT22;11620;50.050;8.690;2022-11-10T14:09:37;16.90;99.90
22908;DHT22;11620;50.050;8.690;2022-11-10T14:18:34;17.00;99.90
22908;DHT22;11620;50.050;8.690;2022-11-10T14:24:24;16.90;99.90
22908;DHT22;11620;50.050;8.690;2022-11-10T14:27:14;17.00;99.90
22908;DHT22;11620;50.050;8.690;2022-11-10T14:30:23;16.90;99.90
22908;DHT22;11620;50.050;8.690;2022-11-10T14:33:10;16.70;99.90
22908;DHT22;11620;50.050;8.690;2022-11-10T14:36:01;16.70;99.90
22908;DHT22;11620;50.050;8.690;2022-11-10T14:38:46;16.50;99.90
22908;DHT22;11620;50.050;8.690;2022-11-10T14:41:31;16.50;99.90
22908;DHT22;11620;50.050;8.690;2022-11-10T14:44:22;16.40;99.90
22908;DHT22;11620;50.050;8.690;2022-11-10T14:53:01;15.90;99.90
22908;DHT22;11620;50.050;8.690;2022-11-10T14:55:46;16.00;99.90
22908;DHT22;11620;50.050;8.690;2022-11-10T14:58:38;16.10;99.90
22908;DHT22;11620;50.050;8.690;2022-11-10T15:01:35;15.90;99.90
22908;DHT22;11620;50.050;8.690;2022-11-10T15:04:28;15.60;99.90
22908;DHT22;11620;50.050;8.690;2022-11-10T15:07:16;15.30;99.90
22908;DHT22;11620;50.050;8.690;2022-11-10T15:10:19;15.30;99.90
22908;DHT22;11620;50.050;8.690;2022-11-10T15:19:27;15.40;99.90
22908;DHT22;11620;50.050;8.690;2022-11-10T15:22:30;15.30;99.90
22908;DHT22;11620;50.050;8.690;2022-11-10T15:25:22;15.10;99.90
22908;DHT22;11620;50.050;8.690;2022-11-10T15:31:01;15.20;99.90
22908;DHT22;11620;50.050;8.690;2022-11-10T15:33:52;15.00;99.90
22908;DHT22;11620;50.050;8.690;2022-11-10T15:36:38;15.00;99.90
22908;DHT22;11620;50.050;8.690;2022-11-10T15:39:25;14.90;99.90
22908;DHT22;11620;50.050;8.690;2022-11-10T15:45:04;14.70;99.90
22908;DHT22;11620;50.050;8.690;2022-11-10T15:47:50;14.60;99.90
22908;DHT22;11620;50.050;8.690;2022-11-10T15:50:37;14.80;99.90
22908;DHT22;11620;50.050;8.690;2022-11-10T15:53:30;14.70;99.90
22908;DHT22;11620;50.050;8.690;2022-11-10T15:56:19;14.50;99.90
22908;DHT22;11620;50.050;8.690;2022-11-10T15:59:08;14.60;99.90
22908;DHT22;11620;50.050;8.690;2022-11-10T16:01:55;14.50;99.90
22908;DHT22;11620;50.050;8.690;2022-11-10T16:04:41;14.30;99.90
22908;DHT22;11620;50.050;8.690;2022-11-10T16:07:27;14.50;99.90
22908;DHT22;11620;50.050;8.690;2022-11-10T16:10:14;14.50;99.90
22908;DHT22;11620;50.050;8.690;2022-11-10T16:13:00;14.50;99.90
22908;DHT22;11620;50.050;8.690;2022-11-10T16:15:47;14.60;99.90
22908;DHT22;11620;50.050;8.690;2022-11-10T16:18:33;14.40;99.90
22908;DHT22;11620;50.050;8.690;2022-11-10T16:21:21;14.40;99.90
22908;DHT22;11620;50.050;8.690;2022-11-10T16:24:08;14.40;99.90
22908;DHT22;11620;50.050;8.690;2022-11-10T16:26:55;14.40;99.90
22908;DHT22;11620;50.050;8.690;2022-11-10T16:29:42;14.50;99.90
22908;DHT22;11620;50.050;8.690;2022-11-10T16:32:28;14.40;99.90
22908;DHT22;11620;50.050;8.690;2022-11-10T16:35:14;14.50;99.90
22908;DHT22;11620;50.050;8.690;2022-11-10T16:38:01;14.40;99.90
22908;DHT22;11620;50.050;8.690;2022-11-10T16:40:56;14.40;99.90
22908;DHT22;11620;50.050;8.690;2022-11-10T16:43:43;14.30;99.90
22908;DHT22;11620;50.050;8.690;2022-11-10T16:46:29;14.30;99.90
22908;DHT22;11620;50.050;8.690;2022-11-10T16:49:42;14.20;99.90
22908;DHT22;11620;50.050;8.690;2022-11-10T16:52:29;14.00;99.90
22908;DHT22;11620;50.050;8.690;2022-11-10T16:55:15;14.00;99.90
22908;DHT22;11620;50.050;8.690;2022-11-10T16:58:02;14.00;99.90
22908;DHT22;11620;50.050;8.690;2022-11-10T17:00:48;14.00;99.90
22908;DHT22;11620;50.050;8.690;2022-11-10T17:03:39;14.00;99.90
22908;DHT22;11620;50.050;8.690;2022-11-10T17:06:28;13.90;99.90
22908;DHT22;11620;50.050;8.690;2022-11-10T17:09:19;13.90;99.90
22908;DHT22;11620;50.050;8.690;2022-11-10T17:12:11;14.00;99.90
22908;DHT22;11620;50.050;8.690;2022-11-10T17:14:57;13.90;99.90
22908;DHT22;11620;50.050;8.690;2022-11-10T17:17:45;13.90;99.90
22908;DHT22;11620;50.050;8.690;2022-11-10T17:20:37;13.80;99.90
22908;DHT22;11620;50.050;8.690;2022-11-10T17:23:24;13.80;99.90
22908;DHT22;11620;50.050;8.690;2022-11-10T17:26:13;13.70;99.90
22908;DHT22;11620;50.050;8.690;2022-11-10T17:29:00;13.70;99.90
22908;DHT22;11620;50.050;8.690;2022-11-10T17:31:47;13.70;99.90
22908;DHT22;11620;50.050;8.690;2022-11-10T17:34:35;13.60;99.90
22908;DHT22;11620;50.050;8.690;2022-11-10T17:37:21;13.60;99.90
22908;DHT22;11620;50.050;8.690;2022-11-10T17:40:34;13.50;99.90
22908;DHT22;11620;50.050;8.690;2022-11-10T17:43:21;13.40;99.90
22908;DHT22;11620;50.050;8.690;2022-11-10T17:46:07;13.40;99.90
22908;DHT22;11620;50.050;8.690;2022-11-10T17:48:54;13.30;99.90
22908;DHT22;11620;50.050;8.690;2022-11-10T17:51:41;13.30;99.90
22908;DHT22;11620;50.050;8.690;2022-11-10T17:54:28;13.20;99.90
22908;DHT22;11620;50.050;8.690;2022-11-10T17:57:14;13.10;99.90
22908;DHT22;11620;50.050;8.690;2022-11-10T18:00:00;12.90;99.90
22908;DHT22;11620;50.050;8.690;2022-11-10T18:02:47;12.80;99.90
22908;DHT22;11620;50.050;8.690;2022-11-10T18:05:34;12.70;99.90
22908;DHT22;11620;50.050;8.690;2022-11-10T18:08:20;12.70;99.90
22908;DHT22;11620;50.050;8.690;2022-11-10T18:11:10;12.60;99.90
22908;DHT22;11620;50.050;8.690;2022-11-10T18:13:57;12.50;99.90
22908;DHT22;11620;50.050;8.690;2022-11-10T18:16:43;12.50;99.90
22908;DHT22;11620;50.050;8.690;2022-11-10T18:19:30;12.50;99.90
22908;DHT22;11620;50.050;8.690;2022-11-10T18:22:16;12.40;99.90
22908;DHT22;11620;50.050;8.690;2022-11-10T18:25:04;12.30;99.90
22908;DHT22;11620;50.050;8.690;2022-11-10T18:27:51;12.20;99.90
22908;DHT22;11620;50.050;8.690;2022-11-10T18:30:37;12.10;99.90
22908;DHT22;11620;50.050;8.690;2022-11-10T18:33:23;12.10;99.90
22908;DHT22;11620;50.050;8.690;2022-11-10T18:36:10;12.10;99.90
22908;DHT22;11620;50.050;8.690;2022-11-10T18:38:56;12.10;99.90
22908;DHT22;11620;50.050;8.690;2022-11-10T18:41:42;12.10;99.90
22908;DHT22;11620;50.050;8.690;2022-11-10T18:44:34;12.10;99.90
22908;DHT22;11620;50.050;8.690;2022-11-10T18:47:22;12.10;99.90
22908;DHT22;11620;50.050;8.690;2022-11-10T18:50:08;12.00;99.90
22908;DHT22;11620;50.050;8.690;2022-11-10T18:52:55;12.10;99.90
22908;DHT22;11620;50.050;8.690;2022-11-10T18:55:41;12.20;99.90
22908;DHT22;11620;50.050;8.690;2022-11-10T18:58:27;12.10;99.90
22908;DHT22;11620;50.050;8.690;2022-11-10T19:01:14;12.20;99.90
22908;DHT22;11620;50.050;8.690;2022-11-10T19:04:00;12.20;99.90
22908;DHT22;11620;50.050;8.690;2022-11-10T19:06:47;12.30;99.90
22908;DHT22;11620;50.050;8.690;2022-11-10T19:09:33;12.00;99.90
22908;DHT22;11620;50.050;8.690;2022-11-10T19:12:19;11.80;99.90
22908;DHT22;11620;50.050;8.690;2022-11-10T19:15:06;11.80;99.90
22908;DHT22;11620;50.050;8.690;2022-11-10T19:17:53;11.60;99.90
22908;DHT22;11620;50.050;8.690;2022-11-10T19:20:40;11.70;99.90
22908;DHT22;11620;50.050;8.690;2022-11-10T19:23:27;11.80;99.90
22908;DHT22;11620;50.050;8.690;2022-11-10T19:26:16;11.80;99.90
22908;DHT22;11620;50.050;8.690;2022-11-10T19:29:03;11.60;99.90
22908;DHT22;11620;50.050;8.690;2022-11-10T19:31:49;11.60;99.90
22908;DHT22;11620;50.050;8.690;2022-11-10T19:34:35;11.70;99.90
22908;DHT22;11620;50.050;8.690;2022-11-10T19:37:22;11.80;99.90
22908;DHT22;11620;50.050;8.690;2022-11-10T19:40:09;11.70;99.90
22908;DHT22;11620;50.050;8.690;2022-11-10T19:42:55;11.40;99.90
22908;DHT22;11620;50.050;8.690;2022-11-10T19:45:42;11.40;99.90
22908;DHT22;11620;50.050;8.690;2022-11-10T19:48:30;11.10;99.90
22908;DHT22;11620;50.050;8.690;2022-11-10T19:51:17;11.10;99.90
22908;DHT22;11620;50.050;8.690;2022-11-10T19:54:04;10.90;99.90
22908;DHT22;11620;50.050;8.690;2022-11-10T19:56:51;11.00;99.90
22908;DHT22;11620;50.050;8.690;2022-11-10T19:59:37;10.90;99.90
22908;DHT22;11620;50.050;8.690;2022-11-10T20:02:23;11.00;99.90
22908;DHT22;11620;50.050;8.690;2022-11-10T20:05:10;10.90;99.90
22908;DHT22;11620;50.050;8.690;2022-11-10T20:08:03;10.70;99.90
22908;DHT22;11620;50.050;8.690;2022-11-10T20:11:08;10.60;99.90
22908;DHT22;11620;50.050;8.690;2022-11-10T20:13:56;10.70;99.90